Time;durP1;ratioP1;P1;durP2;ratioP2;P2;SDS_P1;SDS_P2;PMS_P1;PMS_P2;Temp;Humidity;BMP_temperature;BMP_pressure;BME280_temperature;BME280_humidity;BME280_pressure;Samples;Min_cycle;Max_cycle;Signal;HPM_P1;HPM_P2
2023/01/05 00:02:17;;;;;;;4.43;0.98;;;;;;;8.92;89.04;96691.59;4992774;28;20089;-81
2023/01/05 00:04:45;;;;;;;14.35;2.20;;;;;;;9.07;86.99;96704.88;4993165;28;20514;-81
2023/01/05 00:07:12;;;;;;;9.63;1.80;;;;;;;9.03;87.93;96698.47;4992483;28;20043;-81
2023/01/05 00:09:38;;;;;;;11.93;1.83;;;;;;;8.98;87.84;96695.84;4992024;28;20498;-82
2023/01/05 00:23:06;;;;;;;8.13;1.40;;;;;;;9.19;85.30;96706.31;4986049;28;20417;-80
2023/01/05 00:25:36;;;;;;;11.77;2.00;;;;;;;9.15;85.63;96695.25;4993497;28;20050;-81
2023/01/05 00:28:03;;;;;;;8.02;1.40;;;;;;;9.15;85.30;96679.75;4996088;28;20730;-80
2023/01/05 00:30:35;;;;;;;8.75;1.42;;;;;;;9.12;85.73;96683.06;4996321;28;20455;-82
2023/01/05 00:33:01;;;;;;;10.80;1.65;;;;;;;9.11;85.36;96684.19;4995825;28;20053;-80
2023/01/05 00:35:29;;;;;;;7.78;1.40;;;;;;;9.09;85.67;96696.47;4995222;28;20042;-79
2023/01/05 00:37:56;;;;;;;7.93;1.35;;;;;;;9.02;86.35;96685.16;4995843;28;20046;-80
2023/01/05 00:40:22;;;;;;;5.97;1.30;;;;;;;9.03;86.20;96674.03;4995487;28;20046;-81
2023/01/05 00:42:49;;;;;;;10.95;1.85;;;;;;;9.07;85.54;96682.34;4995990;28;20077;-81
2023/01/05 00:45:18;;;;;;;6.57;1.23;;;;;;;9.08;85.88;96673.94;4995398;28;20042;-80
2023/01/05 00:47:46;;;;;;;9.88;1.30;;;;;;;9.00;86.22;96665.66;4995396;28;20042;-80
2023/01/05 00:50:14;;;;;;;9.45;2.05;;;;;;;9.02;85.94;96672.38;4995119;28;20494;-81
2023/01/05 00:52:41;;;;;;;11.95;1.80;;;;;;;9.05;85.78;96674.50;4995075;28;20058;-80
2023/01/05 00:55:08;;;;;;;8.65;1.40;;;;;;;9.02;86.19;96675.09;4994224;28;20053;-81
2023/01/05 00:57:35;;;;;;;9.07;1.58;;;;;;;9.06;86.21;96670.69;4994542;28;20401;-80
2023/01/05 01:00:02;;;;;;;9.90;1.65;;;;;;;9.13;85.52;96675.72;4995257;28;20501;-80
2023/01/05 01:02:28;;;;;;;8.10;1.40;;;;;;;9.08;85.95;96679.34;5002237;28;20054;-81
2023/01/05 01:04:56;;;;;;;11.27;1.80;;;;;;;9.09;86.02;96675.53;4994745;28;20581;-81
2023/01/05 01:07:23;;;;;;;7.05;1.20;;;;;;;9.10;86.21;96674.41;5005216;28;20041;-80
2023/01/05 01:09:49;;;;;;;7.10;1.20;;;;;;;9.17;85.69;96673.22;5008857;28;20050;-81
2023/01/05 01:12:16;;;;;;;6.15;1.10;;;;;;;9.21;85.69;96666.88;4994328;28;20512;-81
2023/01/05 01:14:45;;;;;;;10.13;1.65;;;;;;;9.24;85.58;96673.59;5003950;28;20061;-81
2023/01/05 01:17:12;;;;;;;3.28;0.70;;;;;;;9.28;84.98;96674.63;5018978;28;20046;-79
2023/01/05 01:19:39;;;;;;;15.18;2.10;;;;;;;9.33;84.92;96658.22;5018353;28;20042;-82
2023/01/05 01:22:07;;;;;;;8.23;1.30;;;;;;;9.36;84.81;96657.63;5020615;28;20069;-80
2023/01/05 01:24:34;;;;;;;9.45;1.45;;;;;;;9.38;85.00;96649.97;5014758;28;20096;-79
2023/01/05 01:27:00;;;;;;;10.50;1.67;;;;;;;9.27;85.70;96643.94;5016114;28;20038;-81
2023/01/05 01:29:28;;;;;;;9.25;1.38;;;;;;;9.34;85.71;96659.81;5014862;28;20041;-80
2023/01/05 01:31:54;;;;;;;8.23;1.40;;;;;;;9.28;85.63;96658.31;4991030;28;20465;-80
2023/01/05 01:34:22;;;;;;;13.98;1.75;;;;;;;9.35;84.83;96645.94;5016661;28;20052;-79
2023/01/05 01:36:48;;;;;;;11.10;1.30;;;;;;;9.37;84.83;96634.78;5017765;28;20061;-81
2023/01/05 01:39:16;;;;;;;7.88;1.10;;;;;;;9.36;84.65;96633.16;5015816;28;20394;-80
2023/01/05 01:41:43;;;;;;;19.65;2.42;;;;;;;9.41;84.44;96638.50;5002729;28;20053;-80
2023/01/05 01:44:47;;;;;;;9.40;1.23;;;;;;;9.36;85.31;96649.47;5012224;28;20049;-81
2023/01/05 01:47:17;;;;;;;7.38;1.10;;;;;;;9.37;84.86;96648.34;5001743;28;20078;-80
2023/01/05 01:49:44;;;;;;;13.32;1.65;;;;;;;9.42;84.53;96648.25;5000177;28;20100;-81
2023/01/05 01:52:11;;;;;;;10.02;1.40;;;;;;;9.44;84.04;96635.16;4999853;28;20042;-80
2023/01/05 01:54:39;;;;;;;13.98;1.75;;;;;;;9.49;84.24;96643.22;4999312;28;20054;-81
2023/01/05 01:57:09;;;;;;;7.57;1.10;;;;;;;9.44;85.05;96631.63;5014103;28;20613;-81
2023/01/05 01:59:36;;;;;;;10.98;1.58;;;;;;;9.28;86.39;96617.56;5018911;28;20057;-80
2023/01/05 02:02:03;;;;;;;7.40;1.15;;;;;;;9.28;86.31;96612.13;5015282;28;20050;-81
2023/01/05 02:04:32;;;;;;;5.05;0.73;;;;;;;9.31;86.18;96617.75;5015083;28;20060;-79
2023/01/05 02:06:59;;;;;;;8.82;1.25;;;;;;;9.31;86.22;96617.75;5013248;28;20060;-80
2023/01/05 02:09:26;;;;;;;10.45;1.40;;;;;;;9.24;86.83;96606.50;5009546;28;20041;-81
2023/01/05 02:12:02;;;;;;;8.50;1.23;;;;;;;9.27;86.57;96605.09;5008167;28;20058;-80
2023/01/05 02:14:36;;;;;;;10.65;1.40;;;;;;;9.32;86.09;96603.06;5012051;28;20413;-80
2023/01/05 02:17:13;;;;;;;12.35;1.50;;;;;;;9.40;85.64;96590.69;5005796;28;20077;-78
2023/01/05 02:20:15;;;;;;;14.38;1.70;;;;;;;9.38;86.09;96579.31;5013197;28;20096;-81
2023/01/05 02:22:59;;;;;;;16.30;1.92;;;;;;;9.35;86.20;96574.50;5001043;28;20077;-80
2023/01/05 02:26:01;;;;;;;8.82;1.08;;;;;;;9.31;86.57;96568.06;5000467;28;20410;-80
2023/01/05 02:28:45;;;;;;;12.75;1.52;;;;;;;9.28;86.69;96563.22;4999668;28;20050;-80
2023/01/05 02:31:17;;;;;;;7.93;1.10;;;;;;;9.29;86.85;96565.66;5010773;28;20429;-81
2023/01/05 02:33:59;;;;;;;11.50;1.40;;;;;;;9.26;87.04;96560.81;4997872;28;20545;-81
2023/01/05 02:36:30;;;;;;;5.87;0.77;;;;;;;9.32;86.78;96556.06;4992750;28;20502;-80
2023/01/05 02:39:04;;;;;;;14.82;1.80;;;;;;;9.32;86.66;96553.34;4991494;28;20042;-81
2023/01/05 02:41:36;;;;;;;16.55;1.85;;;;;;;9.34;86.45;96551.13;4996203;28;20042;-79
2023/01/05 02:44:04;;;;;;;6.30;1.00;;;;;;;9.35;86.69;96547.31;4994297;28;20502;-81
2023/01/05 02:46:31;;;;;;;9.88;1.45;;;;;;;9.38;86.54;96546.69;4992690;28;20050;-80
2023/01/05 02:49:00;;;;;;;7.38;0.93;;;;;;;9.39;86.59;96537.41;4992954;28;20058;-80
2023/01/05 02:51:32;;;;;;;3.50;0.47;;;;;;;9.32;87.69;96539.75;4992284;28;20046;-80
2023/01/05 02:54:03;;;;;;;10.00;1.33;;;;;;;9.29;89.00;96543.06;4993176;28;20054;-81
2023/01/05 02:56:35;;;;;;;10.77;1.50;;;;;;;9.22;90.07;96534.53;5012583;28;20103;-81
2023/01/05 02:59:07;;;;;;;7.28;1.25;;;;;;;9.21;90.39;96530.22;5012554;28;20050;-79
2023/01/05 03:01:40;;;;;;;10.50;1.48;;;;;;;9.13;92.85;96532.56;5013787;28;20045;-79
2023/01/05 03:04:12;;;;;;;8.32;1.10;;;;;;;8.87;97.40;96528.72;5013052;28;20046;-79
2023/01/05 03:06:55;;;;;;;16.05;1.80;;;;;;;8.68;100.00;96518.00;5013743;28;20049;-81
2023/01/05 03:09:25;;;;;;;11.68;1.50;;;;;;;8.50;100.00;96511.53;5011772;28;20049;-81
2023/01/05 03:14:47;;;;;;;7.50;1.17;;;;;;;8.38;100.00;96513.13;4995317;28;20568;-80
2023/01/05 03:17:23;;;;;;;11.35;1.60;;;;;;;8.37;100.00;96512.34;4993635;28;20053;-80
2023/01/05 03:19:50;;;;;;;9.23;1.40;;;;;;;8.39;100.00;96515.53;4991749;28;20046;-81
2023/01/05 03:36:23;;;;;;;11.60;1.52;;;;;;;8.79;99.89;96513.16;5012284;28;20053;-81
2023/01/05 03:38:53;;;;;;;14.32;1.67;;;;;;;8.80;99.46;96507.41;5011878;28;20050;-81
2023/01/05 03:41:23;;;;;;;10.80;1.45;;;;;;;8.89;98.32;96510.25;5000128;28;20057;-80
2023/01/05 03:43:51;;;;;;;10.05;1.33;;;;;;;8.91;97.73;96516.16;4992858;28;20090;-80
2023/01/05 03:46:20;;;;;;;9.73;1.42;;;;;;;8.97;96.51;96506.78;5003037;28;20052;-81
2023/01/05 03:48:48;;;;;;;21.30;2.53;;;;;;;8.97;96.73;96503.28;5012645;28;20050;-81
2023/01/05 03:51:16;;;;;;;8.75;1.20;;;;;;;8.96;96.44;96513.34;5012017;28;20050;-80
2023/01/05 03:53:42;;;;;;;14.82;1.90;;;;;;;9.03;95.46;96500.19;5014935;28;20045;-81
2023/01/05 03:56:09;;;;;;;14.55;1.75;;;;;;;9.11;94.56;96499.44;5014372;28;20054;-80
2023/01/05 03:58:36;;;;;;;12.40;1.55;;;;;;;9.09;94.64;96501.66;5018503;28;20049;-79
2023/01/05 04:01:03;;;;;;;9.77;1.42;;;;;;;9.12;94.07;96506.47;5016303;28;20137;-79
2023/01/05 04:03:30;;;;;;;16.30;2.03;;;;;;;9.13;94.14;96510.81;5017025;28;20046;-81
2023/01/05 04:05:57;;;;;;;6.25;0.95;;;;;;;9.17;93.69;96512.91;5019010;28;20058;-80
2023/01/05 04:08:24;;;;;;;10.13;1.40;;;;;;;9.15;93.60;96505.88;5017936;28;20046;-81
2023/01/05 04:10:52;;;;;;;11.10;1.50;;;;;;;9.21;92.92;96508.47;5011965;28;20061;-80
2023/01/05 04:13:18;;;;;;;9.00;1.50;;;;;;;9.23;92.39;96506.25;4997582;28;20121;-79
2023/01/05 04:15:45;;;;;;;8.95;1.27;;;;;;;9.24;92.36;96507.84;4997624;28;20047;-80
2023/01/05 04:18:11;;;;;;;14.38;2.05;;;;;;;9.25;91.91;96520.34;4997174;28;20049;-81
2023/01/05 04:20:38;;;;;;;12.00;1.80;;;;;;;9.29;91.73;96521.34;4998375;28;20505;-79
2023/01/05 04:23:06;;;;;;;3.40;0.68;;;;;;;9.31;91.26;96513.69;4997955;28;20050;-80
2023/01/05 04:25:33;;;;;;;13.40;1.92;;;;;;;9.30;91.61;96533.84;4997217;28;20126;-80
2023/01/05 04:28:00;;;;;;;7.22;1.20;;;;;;;9.34;90.88;96523.94;4997631;28;20061;-80
2023/01/05 04:30:26;;;;;;;12.05;1.63;;;;;;;9.42;90.22;96520.50;5006190;28;20050;-80
2023/01/05 04:32:53;;;;;;;13.00;1.67;;;;;;;9.38;90.69;96508.63;5000442;28;20058;-80
2023/01/05 04:35:19;;;;;;;8.82;1.30;;;;;;;9.29;92.20;96518.63;4998231;28;20054;-81
2023/01/05 04:37:46;;;;;;;15.93;2.20;;;;;;;9.22;92.52;96515.53;4997824;28;20065;-80
2023/01/05 04:40:14;;;;;;;6.70;1.27;;;;;;;9.21;92.87;96514.72;4998180;28;20049;-79
2023/01/05 04:42:40;;;;;;;8.88;1.52;;;;;;;9.16;93.27;96490.38;5001613;28;20448;-80
2023/01/05 04:45:08;;;;;;;7.28;1.45;;;;;;;9.10;93.45;96492.41;4999070;28;20050;-80
2023/01/05 04:47:35;;;;;;;16.35;2.13;;;;;;;9.12;92.54;96479.31;5017063;28;20049;-81
2023/01/05 04:50:01;;;;;;;6.45;1.20;;;;;;;9.24;91.12;96458.94;5019872;28;20046;-79
2023/01/05 04:52:27;;;;;;;8.10;1.27;;;;;;;9.24;90.73;96477.97;5020106;28;20516;-80
2023/01/05 04:54:54;;;;;;;18.77;2.67;;;;;;;9.30;89.95;96474.06;5020814;28;20053;-80
2023/01/05 04:57:22;;;;;;;4.40;0.93;;;;;;;9.39;89.00;96477.63;5019641;28;20046;-79
2023/01/05 04:59:48;;;;;;;9.50;1.50;;;;;;;9.40;89.06;96481.97;5002282;28;20064;-78
2023/01/05 05:02:15;;;;;;;8.15;1.33;;;;;;;9.40;88.61;96471.09;5000810;28;20061;-79
2023/01/05 05:04:42;;;;;;;13.95;1.98;;;;;;;9.43;88.38;96469.66;5002018;28;20053;-79
2023/01/05 05:07:08;;;;;;;8.77;1.30;;;;;;;9.50;87.64;96473.59;5001247;28;20057;-80
2023/01/05 05:09:35;;;;;;;12.48;1.80;;;;;;;9.55;86.97;96476.19;5004983;28;20045;-79
2023/01/05 05:12:01;;;;;;;6.97;1.15;;;;;;;9.55;87.48;96483.50;5002250;28;20057;-80
2023/01/05 05:14:29;;;;;;;10.93;1.40;;;;;;;9.59;86.58;96469.00;5001418;28;20065;-79
2023/01/05 05:16:56;;;;;;;12.40;1.65;;;;;;;9.70;85.51;96476.91;5000342;28;20050;-78
2023/01/05 05:19:22;;;;;;;8.52;1.40;;;;;;;9.71;85.36;96473.06;5010692;28;20065;-78
2023/01/05 05:21:49;;;;;;;9.93;1.45;;;;;;;9.72;85.37;96496.44;5020291;28;20050;-80
2023/01/05 05:24:15;;;;;;;5.05;0.98;;;;;;;9.74;85.43;96494.22;5020709;28;20052;-79
2023/01/05 05:26:42;;;;;;;13.02;1.77;;;;;;;9.72;85.25;96496.44;5020182;28;20061;-79
2023/01/05 05:29:08;;;;;;;7.43;1.30;;;;;;;9.73;84.81;96477.09;5021038;28;20053;-79
2023/01/05 05:31:36;;;;;;;19.67;2.38;;;;;;;9.74;85.00;96494.22;5021483;28;20042;-79
2023/01/05 05:34:03;;;;;;;9.45;1.30;;;;;;;9.76;84.92;96502.84;5024293;28;20046;-78
2023/01/05 05:36:34;;;;;;;8.18;1.13;;;;;;;9.82;84.32;96507.09;5022526;28;20045;-79
2023/01/05 05:39:01;;;;;;;19.20;2.45;;;;;;;9.79;84.48;96513.13;5022949;28;20046;-80
2023/01/05 05:41:27;;;;;;;16.42;1.92;;;;;;;9.75;84.97;96523.00;5014988;28;20038;-79
2023/01/05 05:43:56;;;;;;;7.25;1.13;;;;;;;9.77;84.65;96527.03;5022775;28;20042;-81
2023/01/05 05:46:22;;;;;;;9.82;1.42;;;;;;;9.74;85.40;96526.84;5024613;28;20478;-79
2023/01/05 05:48:50;;;;;;;10.93;1.48;;;;;;;9.71;85.21;96517.41;5010859;28;20046;-79
2023/01/05 05:51:17;;;;;;;11.05;1.48;;;;;;;9.71;85.34;96522.84;4997946;28;20053;-80
2023/01/05 05:53:43;;;;;;;13.73;1.90;;;;;;;9.71;84.84;96528.28;4995106;28;20406;-81
2023/01/05 05:56:10;;;;;;;9.15;1.33;;;;;;;9.75;84.73;96517.56;4997181;28;20042;-81
2023/01/05 05:58:36;;;;;;;13.32;1.83;;;;;;;9.74;84.66;96524.94;4998070;28;20043;-80
2023/01/05 06:01:03;;;;;;;7.65;1.27;;;;;;;9.77;84.63;96528.97;4995807;28;20042;-79
2023/01/05 06:03:29;;;;;;;6.60;1.05;;;;;;;9.76;84.75;96524.63;4999302;28;20046;-78
2023/01/05 06:05:57;;;;;;;5.57;0.82;;;;;;;9.80;84.42;96520.16;4997869;28;20414;-80
2023/01/05 06:08:25;;;;;;;5.30;0.85;;;;;;;9.78;84.61;96516.97;4997722;28;20050;-80
2023/01/05 06:10:52;;;;;;;10.05;1.35;;;;;;;9.79;84.52;96534.88;5008580;28;20079;-79
2023/01/05 06:13:19;;;;;;;5.68;1.00;;;;;;;9.74;85.05;96537.72;4996266;28;20050;-80
2023/01/05 06:15:45;;;;;;;11.90;1.73;;;;;;;9.70;85.28;96537.53;4996168;28;20042;-80
2023/01/05 06:18:12;;;;;;;9.53;1.20;;;;;;;9.72;85.16;96542.69;4995382;28;20117;-80
2023/01/05 06:20:39;;;;;;;13.57;1.90;;;;;;;9.70;85.56;96547.59;4995588;28;20409;-80
2023/01/05 06:23:07;;;;;;;6.30;1.00;;;;;;;9.71;85.30;96547.31;4997025;28;20043;-80
2023/01/05 06:25:33;;;;;;;5.82;1.02;;;;;;;9.71;85.69;96544.59;4999770;28;20050;-81
2023/01/05 06:28:01;;;;;;;9.07;1.30;;;;;;;9.64;86.00;96539.56;4998080;28;20039;-80
2023/01/05 06:30:28;;;;;;;14.60;1.95;;;;;;;9.60;86.80;96544.00;5011095;28;20393;-79
2023/01/05 06:32:55;;;;;;;9.15;1.38;;;;;;;9.59;86.40;96536.97;4989567;28;20058;-79
2023/01/05 06:35:22;;;;;;;11.18;1.58;;;;;;;9.63;86.46;96524.38;4999294;28;20034;-80
2023/01/05 06:37:48;;;;;;;11.27;1.52;;;;;;;9.59;86.89;96536.16;4999242;28;20057;-80
2023/01/05 06:40:16;;;;;;;14.90;1.95;;;;;;;9.64;86.28;96544.19;4997775;28;20043;-80
2023/01/05 06:42:43;;;;;;;16.38;2.05;;;;;;;9.60;86.75;96543.19;4999835;28;20046;-79
2023/01/05 06:45:13;;;;;;;10.18;1.35;;;;;;;9.63;86.66;96553.47;4994245;28;20066;-78
2023/01/05 06:47:40;;;;;;;16.58;2.13;;;;;;;9.60;86.59;96563.03;4999515;28;20042;-79
2023/01/05 06:50:08;;;;;;;8.15;1.30;;;;;;;9.64;86.36;96565.94;4998406;28;20069;-79
2023/01/05 06:52:38;;;;;;;17.42;2.13;;;;;;;9.65;85.87;96562.13;4998483;28;20046;-77
2023/01/05 06:55:06;;;;;;;14.30;1.70;;;;;;;9.66;86.08;96569.19;4999769;28;20042;-79
2023/01/05 06:57:35;;;;;;;13.85;1.88;;;;;;;9.67;86.25;96568.88;5001160;28;20042;-78
2023/01/05 07:00:02;;;;;;;14.20;2.00;;;;;;;9.66;86.25;96570.00;4999757;28;20045;-81
2023/01/05 07:02:28;;;;;;;10.75;1.42;;;;;;;9.63;86.91;96569.78;4998105;28;20046;-77
2023/01/05 07:04:55;;;;;;;15.65;2.25;;;;;;;9.59;88.00;96575.03;4997327;28;20053;-80
2023/01/05 07:07:22;;;;;;;12.82;1.90;;;;;;;9.46;89.77;96573.16;4997692;28;20042;-80
2023/01/05 07:09:48;;;;;;;9.20;1.50;;;;;;;9.40;90.37;96571.66;4997608;28;20057;-79
2023/01/05 07:12:15;;;;;;;9.25;1.60;;;;;;;9.33;90.87;96571.25;4995132;28;20065;-78
2023/01/05 07:14:43;;;;;;;12.50;1.88;;;;;;;9.38;90.22;96568.44;4995132;28;20057;-79
2023/01/05 07:17:11;;;;;;;4.70;0.95;;;;;;;9.38;90.33;96574.66;4993119;28;20046;-78
2023/01/05 07:19:37;;;;;;;14.27;2.00;;;;;;;9.38;90.56;96585.53;4992489;28;20062;-79
2023/01/05 07:22:04;;;;;;;10.05;1.45;;;;;;;9.38;91.34;96584.72;4992369;28;20061;-79
2023/01/05 07:24:30;;;;;;;11.45;1.45;;;;;;;9.30;91.96;96582.75;4991973;28;20490;-81
2023/01/05 07:26:58;;;;;;;10.98;1.50;;;;;;;9.30;91.90;96580.03;4992507;28;20043;-79
2023/01/05 07:29:25;;;;;;;13.77;1.77;;;;;;;9.34;91.08;96591.88;4993240;28;20049;-79
2023/01/05 07:31:52;;;;;;;9.65;1.50;;;;;;;9.35;90.90;96585.34;4995976;28;20061;-80
2023/01/05 07:34:19;;;;;;;13.88;1.80;;;;;;;9.45;90.03;96587.88;4994031;28;20055;-80
2023/01/05 07:36:46;;;;;;;16.30;2.30;;;;;;;9.44;89.96;96605.25;4994333;28;20042;-80
2023/01/05 07:39:13;;;;;;;12.65;1.80;;;;;;;9.47;89.92;96598.41;4987237;28;20054;-79
2023/01/05 07:41:39;;;;;;;18.00;2.20;;;;;;;9.41;90.55;96590.38;5004507;28;20058;-80
2023/01/05 07:44:06;;;;;;;8.43;1.55;;;;;;;9.33;92.58;96593.78;4994834;28;20537;-79
2023/01/05 07:46:33;;;;;;;15.75;2.22;;;;;;;9.15;95.18;96614.56;4993474;28;20418;-80
2023/01/05 07:49:01;;;;;;;13.00;1.92;;;;;;;9.11;96.38;96608.09;4994479;28;20054;-79
2023/01/05 07:51:28;;;;;;;12.23;1.70;;;;;;;9.06;96.44;96616.34;4996282;28;20543;-81
2023/01/05 07:53:55;;;;;;;11.93;1.85;;;;;;;9.07;96.21;96612.53;4996141;28;20058;-79
2023/01/05 07:56:21;;;;;;;11.35;1.58;;;;;;;9.21;94.11;96623.41;4994427;28;20065;-82
2023/01/05 07:58:48;;;;;;;9.23;1.15;;;;;;;9.29;92.92;96614.56;4993158;28;20051;-78
2023/01/05 08:01:16;;;;;;;12.00;1.45;;;;;;;9.33;91.97;96625.59;4993161;28;20047;-79
2023/01/05 08:03:42;;;;;;;20.50;2.05;;;;;;;9.38;91.85;96633.66;4991608;28;20043;-81
2023/01/05 08:06:13;;;;;;;13.10;1.75;;;;;;;9.44;90.82;96632.44;4992444;28;20046;-79
2023/01/05 08:08:40;;;;;;;13.38;1.58;;;;;;;9.41;91.35;96636.59;4993059;28;20047;-79
2023/01/05 08:11:08;;;;;;;16.42;1.92;;;;;;;9.42;91.91;96634.66;4992456;28;20057;-81
2023/01/05 08:16:18;;;;;;;15.63;1.77;;;;;;;9.13;96.56;96648.56;4992937;28;20061;-79
2023/01/05 08:18:45;;;;;;;19.70;2.10;;;;;;;9.00;98.66;96647.44;4992621;28;20046;-80
2023/01/05 08:21:13;;;;;;;14.45;1.60;;;;;;;8.93;100.00;96649.75;4992013;28;20046;-81
2023/01/05 08:23:39;;;;;;;12.13;1.63;;;;;;;8.89;100.00;96651.47;4991605;28;20050;-80
2023/01/05 08:26:07;;;;;;;9.27;1.30;;;;;;;8.88;100.00;96649.84;4992141;28;20050;-80
2023/01/05 08:28:36;;;;;;;12.02;1.45;;;;;;;8.81;100.00;96657.56;4993709;28;20057;-79
2023/01/05 08:31:04;;;;;;;10.55;1.40;;;;;;;8.74;100.00;96651.72;4994584;28;20493;-81
2023/01/05 08:33:30;;;;;;;11.85;1.48;;;;;;;8.68;100.00;96659.16;4992311;28;20043;-81
2023/01/05 08:35:57;;;;;;;9.40;1.42;;;;;;;8.66;100.00;96655.13;4992984;28;20061;-81
2023/01/05 08:38:25;;;;;;;13.23;1.73;;;;;;;8.71;100.00;96657.75;4994495;28;20042;-79
2023/01/05 08:40:51;;;;;;;16.02;1.70;;;;;;;8.80;100.00;96672.25;4992335;28;20051;-79
2023/01/05 08:43:18;;;;;;;12.40;1.50;;;;;;;8.80;100.00;96680.41;4991992;28;20050;-79
2023/01/05 08:45:48;;;;;;;16.52;1.75;;;;;;;8.69;100.00;96681.69;4995248;28;20039;-81
2023/01/05 08:48:15;;;;;;;10.52;1.65;;;;;;;8.56;100.00;96689.50;5001764;28;20050;-82
2023/01/05 08:50:42;;;;;;;17.35;2.05;;;;;;;8.51;100.00;96697.72;5000273;28;20569;-81
2023/01/05 08:53:08;;;;;;;13.40;1.58;;;;;;;8.47;100.00;96704.03;4995055;28;20046;-81
2023/01/05 08:55:36;;;;;;;15.77;1.90;;;;;;;8.40;100.00;96701.69;4998569;28;20082;-82
2023/01/05 08:58:05;;;;;;;15.02;1.75;;;;;;;8.31;100.00;96703.44;5000203;28;20057;-80
2023/01/05 09:00:32;;;;;;;19.27;2.40;;;;;;;8.30;100.00;96704.50;5001407;28;20069;-82
2023/01/05 09:02:58;;;;;;;15.68;2.17;;;;;;;8.25;100.00;96710.03;5002210;28;20097;-84
2023/01/05 09:05:25;;;;;;;14.73;2.15;;;;;;;8.26;100.00;96719.78;5000990;28;20042;-83
2023/01/05 09:07:51;;;;;;;16.48;2.35;;;;;;;8.22;100.00;96721.47;4997652;28;20056;-81
2023/01/05 09:10:18;;;;;;;10.32;1.85;;;;;;;8.20;100.00;96729.09;4997601;28;20080;-81
2023/01/05 09:12:46;;;;;;;14.65;2.75;;;;;;;8.15;100.00;96731.91;4996124;28;20395;-82
2023/01/05 09:15:12;;;;;;;17.95;2.90;;;;;;;8.16;100.00;96738.94;5005988;28;20047;-81
2023/01/05 09:17:39;;;;;;;28.00;3.08;;;;;;;8.18;100.00;96744.84;5000037;28;20043;-82
2023/01/05 09:20:07;;;;;;;9.95;1.38;;;;;;;8.10;100.00;96739.00;4993238;28;20554;-83
2023/01/05 09:22:34;;;;;;;10.85;1.30;;;;;;;8.11;100.00;96743.31;5001763;28;20723;-80
2023/01/05 09:25:04;;;;;;;22.25;2.20;;;;;;;8.09;100.00;96745.53;4998353;28;20058;-81
2023/01/05 09:27:30;;;;;;;10.57;1.35;;;;;;;8.11;100.00;96753.34;5017431;28;20050;-82
2023/01/05 09:29:58;;;;;;;5.63;0.80;;;;;;;8.07;100.00;96753.13;5018081;28;20046;-82
2023/01/05 09:32:27;;;;;;;15.15;1.40;;;;;;;8.07;100.00;96769.41;5017760;28;20441;-81
2023/01/05 09:34:54;;;;;;;13.27;1.60;;;;;;;8.03;100.00;96773.78;5019359;28;20563;-81
2023/01/05 09:37:23;;;;;;;7.82;1.10;;;;;;;8.03;100.00;96779.22;5021008;28;20050;-83
2023/01/05 09:39:50;;;;;;;12.27;1.65;;;;;;;8.03;100.00;96778.41;5016614;28;20050;-82
2023/01/05 09:42:20;;;;;;;11.27;1.55;;;;;;;8.01;100.00;96786.84;5023485;28;20436;-81
2023/01/05 09:44:49;;;;;;;9.98;1.33;;;;;;;7.97;100.00;96774.16;5002211;28;20055;-82
2023/01/05 09:47:26;;;;;;;10.88;1.40;;;;;;;8.03;100.00;96781.94;5004287;28;20457;-81
2023/01/05 09:49:54;;;;;;;11.13;1.48;;;;;;;7.95;100.00;96785.31;5015652;28;20045;-81
2023/01/05 09:52:22;;;;;;;16.48;1.90;;;;;;;7.91;100.00;96786.97;5020979;28;20042;-83
2023/01/05 09:54:52;;;;;;;23.27;2.70;;;;;;;7.90;100.00;96788.06;5020585;28;20086;-81
2023/01/05 09:57:21;;;;;;;15.85;2.00;;;;;;;7.83;100.00;96787.63;5021849;28;20054;-85
2023/01/05 09:59:51;;;;;;;13.25;1.60;;;;;;;7.81;100.00;96793.31;5020257;28;20129;-80
2023/01/05 10:02:25;;;;;;;11.40;1.30;;;;;;;7.87;100.00;96791.34;5025697;28;20042;-80
2023/01/05 10:04:54;;;;;;;26.98;2.97;;;;;;;7.82;100.00;96794.13;5022941;28;20056;-81
2023/01/05 10:07:31;;;;;;;15.88;2.08;;;;;;;7.75;100.00;96804.53;5078130;22;20051;-82
2023/01/05 10:10:02;;;;;;;10.65;1.70;;;;;;;7.73;100.00;96804.81;5058733;28;20042;-83
2023/01/05 10:15:21;;;;;;;10.80;2.00;;;;;;;7.68;100.00;96794.03;5034604;28;20095;-82
2023/01/05 10:17:49;;;;;;;9.55;2.20;;;;;;;7.63;100.00;96801.41;5034733;28;20504;-82
2023/01/05 10:20:18;;;;;;;19.15;2.80;;;;;;;7.56;100.00;96807.97;5024918;28;20042;-81
2023/01/05 10:22:53;;;;;;;9.77;1.85;;;;;;;7.56;100.00;96810.66;5034613;28;20049;-81
2023/01/05 10:25:26;;;;;;;14.05;2.53;;;;;;;7.52;100.00;96796.09;5019937;28;20042;-83
2023/01/05 10:28:01;;;;;;;11.27;1.88;;;;;;;7.58;100.00;96803.06;5027867;28;20048;-82
2023/01/05 10:30:43;;;;;;;9.65;1.88;;;;;;;7.58;100.00;96802.28;5046681;28;20068;-82
2023/01/05 10:33:17;;;;;;;19.65;2.72;;;;;;;7.56;100.00;96797.13;5049033;28;20033;-82
2023/01/05 10:35:57;;;;;;;15.95;2.30;;;;;;;7.51;100.00;96789.03;5048778;28;20045;-81
2023/01/05 10:38:47;;;;;;;9.07;2.00;;;;;;;7.51;100.00;96810.72;5043188;28;20037;-81
2023/01/05 10:41:20;;;;;;;12.82;1.95;;;;;;;7.50;100.00;96814.53;5042570;28;20049;-82
2023/01/05 10:44:07;;;;;;;9.30;2.10;;;;;;;7.50;100.00;96806.41;5042737;28;20055;-82
2023/01/05 10:46:39;;;;;;;15.73;2.90;;;;;;;7.49;100.00;96803.97;5043345;28;20041;-81
2023/01/05 10:49:08;;;;;;;16.20;2.45;;;;;;;7.50;100.00;96809.09;5045769;28;20041;-82
2023/01/05 10:51:36;;;;;;;18.65;3.13;;;;;;;7.53;100.00;96800.41;5049003;28;20065;-81
2023/01/05 10:54:05;;;;;;;14.30;3.42;;;;;;;7.56;100.00;96793.59;5048746;28;20041;-82
2023/01/05 10:56:32;;;;;;;14.10;2.78;;;;;;;7.57;100.00;96797.94;5048591;28;20041;-81
2023/01/05 10:59:08;;;;;;;12.63;2.65;;;;;;;7.56;100.00;96788.19;5049240;28;20451;-80
2023/01/05 11:01:37;;;;;;;22.65;3.42;;;;;;;7.63;100.00;96793.28;5046506;28;20041;-82
2023/01/05 11:04:08;;;;;;;21.10;3.42;;;;;;;7.61;100.00;96798.16;5038997;28;20085;-81
2023/01/05 11:06:37;;;;;;;18.73;2.97;;;;;;;7.58;100.00;96794.94;5044136;28;20049;-82
2023/01/05 11:09:16;;;;;;;33.53;4.13;;;;;;;7.64;100.00;96792.19;5040207;28;20448;-80
2023/01/05 11:14:15;;;;;;;14.52;2.40;;;;;;;7.73;100.00;96795.88;5100988;22;20519;-81
2023/01/05 11:16:48;;;;;;;14.25;2.65;;;;;;;7.75;100.00;96799.91;5080748;28;20100;-82
2023/01/05 11:19:18;;;;;;;10.75;2.38;;;;;;;7.73;100.00;96795.88;5076026;28;20052;-82
2023/01/05 11:21:46;;;;;;;21.58;3.45;;;;;;;7.70;100.00;96791.03;5072192;28;20052;-81
2023/01/05 11:24:30;;;;;;;13.98;2.63;;;;;;;7.72;100.00;96794.25;5062040;28;20041;-82
2023/01/05 11:26:58;;;;;;;16.17;2.60;;;;;;;7.74;100.00;96794.78;5055998;28;20033;-82
2023/01/05 11:29:25;;;;;;;14.00;2.53;;;;;;;7.74;100.00;96789.34;5064433;28;20154;-81
2023/01/05 11:31:54;;;;;;;17.23;2.78;;;;;;;7.70;100.00;96786.41;5065945;28;20056;-81
2023/01/05 11:34:30;;;;;;;18.58;2.97;;;;;;;7.75;100.00;96780.94;5062245;28;20045;-81
2023/01/05 11:36:59;;;;;;;14.43;2.60;;;;;;;7.84;100.00;96775.69;5070934;28;20049;-81
2023/01/05 11:39:29;;;;;;;13.65;2.60;;;;;;;7.89;100.00;96772.09;5076278;28;20048;-80
2023/01/05 11:42:12;;;;;;;18.80;2.97;;;;;;;7.93;100.00;96771.19;5070435;28;20119;-81
2023/01/05 11:44:41;;;;;;;10.70;2.20;;;;;;;7.99;100.00;96770.06;5073271;28;20037;-80
2023/01/05 11:47:10;;;;;;;21.58;3.03;;;;;;;8.02;100.00;96769.47;5053201;28;20051;-81
2023/01/05 11:49:38;;;;;;;13.07;2.05;;;;;;;8.06;100.00;96762.38;5066955;28;20041;-80
2023/01/05 11:52:26;;;;;;;16.52;2.35;;;;;;;8.10;100.00;96757.19;5084985;28;20051;-81
2023/01/05 11:54:53;;;;;;;22.45;2.92;;;;;;;8.19;100.00;96760.03;5056366;28;20112;-80
2023/01/05 11:57:22;;;;;;;15.52;2.30;;;;;;;8.21;100.00;96757.84;5061081;28;20402;-80
2023/01/05 11:59:50;;;;;;;12.15;2.00;;;;;;;8.31;100.00;96765.84;5065939;28;20075;-81
2023/01/05 12:02:48;;;;;;;10.35;2.05;;;;;;;8.41;100.00;96752.16;5070023;28;20078;-80
2023/01/05 12:05:26;;;;;;;13.85;2.22;;;;;;;8.54;100.00;96756.84;5055363;28;20051;-82
2023/01/05 12:07:58;;;;;;;9.52;1.83;;;;;;;8.55;100.00;96758.44;5073234;28;20098;-80
2023/01/05 12:10:55;;;;;;;7.95;1.38;;;;;;;8.71;100.00;96752.78;5054694;28;20104;-81
2023/01/05 12:13:49;;;;;;;13.52;2.13;;;;;;;8.77;100.00;96743.44;5058038;28;20051;-79
2023/01/05 12:16:30;;;;;;;17.20;2.88;;;;;;;8.88;100.00;96762.00;5052487;28;20041;-80
2023/01/05 12:19:16;;;;;;;15.13;2.25;;;;;;;8.85;100.00;96759.06;5056987;28;20045;-81
2023/01/05 12:21:54;;;;;;;17.85;2.22;;;;;;;8.93;100.00;96757.56;5049184;28;20382;-80